createdAt,value
2023-03-06T00:01:17.145Z,5.88
2023-03-06T00:03:44.290Z,5.88
2023-03-06T00:06:11.348Z,5.89
2023-03-06T00:08:38.306Z,5.87
2023-03-06T00:11:05.469Z,5.83
2023-03-06T00:13:34.451Z,5.82
2023-03-06T00:16:01.725Z,5.70
2023-03-06T00:18:28.936Z,5.73
2023-03-06T00:20:55.914Z,5.98
2023-03-06T00:23:23.217Z,5.95
2023-03-06T00:25:50.519Z,5.98
2023-03-06T00:28:17.960Z,5.83
2023-03-06T00:30:46.519Z,5.79
2023-03-06T00:33:13.421Z,5.75
2023-03-06T00:35:41.387Z,5.81
2023-03-06T00:38:10.379Z,5.70
2023-03-06T00:40:37.345Z,5.76
2023-03-06T00:43:04.176Z,5.45
2023-03-06T00:45:31.298Z,5.37
2023-03-06T00:47:58.288Z,5.33
2023-03-06T00:50:25.484Z,5.37
2023-03-06T00:52:52.520Z,5.28
2023-03-06T00:55:20.098Z,4.92
2023-03-06T00:57:47.183Z,5.09
2023-03-06T01:00:14.744Z,5.18
2023-03-06T01:02:41.814Z,5.07
2023-03-06T01:05:09.449Z,4.95
2023-03-06T01:07:37.865Z,4.76
2023-03-06T01:10:05.873Z,4.71
2023-03-06T01:12:32.805Z,4.78
2023-03-06T01:15:00.496Z,4.86
2023-03-06T01:17:30.431Z,4.89
2023-03-06T01:19:58.129Z,4.91
2023-03-06T01:22:25.061Z,5.12
2023-03-06T01:24:53.437Z,5.13
2023-03-06T01:27:22.019Z,5.22
2023-03-06T01:29:49.010Z,5.13
2023-03-06T01:32:16.037Z,4.93
2023-03-06T01:34:43.064Z,5.10
2023-03-06T01:37:09.957Z,5.25
2023-03-06T01:40:02.375Z,5.21
2023-03-06T01:42:32.095Z,5.28
2023-03-06T01:45:01.650Z,5.07
2023-03-06T01:47:31.154Z,5.12
2023-03-06T01:50:01.513Z,5.13
2023-03-06T01:52:38.394Z,5.27
2023-03-06T01:55:11.300Z,5.40
2023-03-06T01:57:44.897Z,5.18
2023-03-06T02:00:18.829Z,5.17
2023-03-06T02:02:52.348Z,4.55
2023-03-06T02:05:19.914Z,4.43
2023-03-06T02:07:48.425Z,4.39
2023-03-06T02:10:16.791Z,4.48
2023-03-06T02:12:45.743Z,4.40
2023-03-06T02:15:15.501Z,4.58
2023-03-06T02:17:45.466Z,4.61
2023-03-06T02:20:22.264Z,4.73
2023-03-06T02:23:06.253Z,4.86
2023-03-06T02:25:48.777Z,4.89
2023-03-06T02:28:22.094Z,4.68
2023-03-06T02:30:52.133Z,4.77
2023-03-06T02:33:27.547Z,4.82
2023-03-06T02:36:06.477Z,4.86
2023-03-06T02:38:46.029Z,4.35
2023-03-06T02:41:12.921Z,4.51
2023-03-06T02:43:42.278Z,4.42
2023-03-06T02:46:09.358Z,4.65
2023-03-06T02:48:36.412Z,4.66
2023-03-06T02:51:03.519Z,4.72
2023-03-06T02:53:30.541Z,4.67
2023-03-06T02:55:59.817Z,4.60
2023-03-06T02:58:26.825Z,4.49
2023-03-06T03:00:53.838Z,4.42
2023-03-06T03:03:21.539Z,4.27
2023-03-06T03:05:48.449Z,4.38
2023-03-06T03:08:22.994Z,4.28
2023-03-06T03:10:53.097Z,4.30
2023-03-06T03:13:20.610Z,4.25
2023-03-06T03:16:03.621Z,4.12
2023-03-06T03:18:31.021Z,3.73
2023-03-06T03:20:58.690Z,4.13
2023-03-06T03:23:26.899Z,4.01
2023-03-06T03:26:06.960Z,3.84
2023-03-06T03:28:35.220Z,3.92
2023-03-06T03:31:07.394Z,3.85
2023-03-06T03:33:35.439Z,3.91
2023-03-06T03:36:05.059Z,3.68
2023-03-06T03:38:35.300Z,3.73
2023-03-06T03:41:03.294Z,3.66
2023-03-06T03:43:31.359Z,3.40
2023-03-06T03:45:59.273Z,3.55
2023-03-06T03:48:26.511Z,3.59
2023-03-06T03:50:53.599Z,3.58
2023-03-06T03:53:23.844Z,3.76
2023-03-06T03:55:51.332Z,3.73
2023-03-06T03:58:21.185Z,3.87
2023-03-06T04:00:49.419Z,3.72
2023-03-06T04:03:16.409Z,3.67
2023-03-06T04:05:45.725Z,3.63
2023-03-06T04:08:15.639Z,3.78
2023-03-06T04:10:45.628Z,3.62
2023-03-06T04:13:15.036Z,3.53
2023-03-06T04:15:45.203Z,3.46
2023-03-06T04:18:12.497Z,3.62
2023-03-06T04:20:39.708Z,3.68
2023-03-06T04:23:07.242Z,3.50
2023-03-06T04:25:34.320Z,3.32
2023-03-06T04:28:04.451Z,3.37
2023-03-06T04:30:32.323Z,3.55
2023-03-06T04:33:00.733Z,3.66
2023-03-06T04:35:27.902Z,3.66
2023-03-06T04:38:00.526Z,3.66
2023-03-06T04:40:32.468Z,3.69
2023-03-06T04:43:00.863Z,3.58
2023-03-06T04:45:30.342Z,3.50
2023-03-06T04:47:57.594Z,3.35
2023-03-06T04:50:25.450Z,3.01
2023-03-06T04:52:52.787Z,2.70
2023-03-06T04:55:20.434Z,2.81
2023-03-06T04:57:47.898Z,2.63
2023-03-06T05:00:20.959Z,2.53
2023-03-06T05:02:48.975Z,2.54
2023-03-06T05:05:17.173Z,2.63
2023-03-06T05:07:44.691Z,2.46
2023-03-06T05:10:15.055Z,2.55
2023-03-06T05:12:42.439Z,2.64
2023-03-06T05:15:11.369Z,2.70
2023-03-06T05:17:38.939Z,2.85
2023-03-06T05:20:11.083Z,3.07
2023-03-06T05:22:38.192Z,3.00
2023-03-06T05:25:05.939Z,2.96
2023-03-06T05:27:33.829Z,2.92
2023-03-06T05:30:01.420Z,2.90
2023-03-06T05:32:31.184Z,2.96
2023-03-06T05:34:58.511Z,2.95
2023-03-06T05:37:25.518Z,2.92
2023-03-06T05:39:52.767Z,3.21
2023-03-06T05:42:19.852Z,3.40
2023-03-06T05:44:46.700Z,3.67
2023-03-06T05:47:13.953Z,3.85
2023-03-06T05:49:41.282Z,4.04
2023-03-06T05:52:09.356Z,4.13
2023-03-06T05:54:37.401Z,4.07
2023-03-06T05:57:05.468Z,4.09
2023-03-06T05:59:33.476Z,4.18
2023-03-06T06:02:01.031Z,4.17
2023-03-06T06:04:28.323Z,4.30
2023-03-06T06:06:57.912Z,4.24
2023-03-06T06:09:25.984Z,4.33
2023-03-06T06:12:03.772Z,4.39
2023-03-06T06:14:34.512Z,4.48
2023-03-06T06:17:02.403Z,4.65
2023-03-06T06:19:30.687Z,4.72
2023-03-06T06:21:57.875Z,4.73
2023-03-06T06:24:26.399Z,4.78
2023-03-06T06:26:55.904Z,4.54
2023-03-06T06:29:24.524Z,4.50
2023-03-06T06:31:52.494Z,4.57
2023-03-06T06:34:20.186Z,4.79
2023-03-06T06:36:47.978Z,4.98
2023-03-06T06:39:17.416Z,5.21
2023-03-06T06:42:02.221Z,5.25
2023-03-06T06:44:29.943Z,5.44
2023-03-06T06:49:45.169Z,5.74
2023-03-06T06:52:12.128Z,5.94
2023-03-06T06:54:39.044Z,5.90
2023-03-06T06:57:06.473Z,6.10
2023-03-06T06:59:37.993Z,6.10
2023-03-06T07:02:06.044Z,6.47
2023-03-06T07:04:33.181Z,6.78
2023-03-06T07:07:01.378Z,6.81
2023-03-06T07:09:32.000Z,6.84
2023-03-06T07:12:02.454Z,7.04
2023-03-06T07:14:29.482Z,7.17
2023-03-06T07:16:56.475Z,7.23
2023-03-06T07:19:23.521Z,7.36
2023-03-06T07:21:50.881Z,7.48
2023-03-06T07:24:21.557Z,7.68
2023-03-06T07:26:49.637Z,7.69
2023-03-06T07:29:16.964Z,7.78
2023-03-06T07:31:44.550Z,7.81
2023-03-06T07:34:15.376Z,7.99
2023-03-06T07:36:42.498Z,8.21
2023-03-06T07:39:10.199Z,8.14
2023-03-06T07:41:37.365Z,8.07
2023-03-06T07:44:04.477Z,8.26
2023-03-06T07:46:31.812Z,8.08
2023-03-06T07:48:58.917Z,8.32
2023-03-06T07:51:25.953Z,8.50
2023-03-06T07:53:52.924Z,8.58
2023-03-06T07:56:19.965Z,8.68
2023-03-06T07:58:48.165Z,8.87
2023-03-06T08:01:17.962Z,8.89
2023-03-06T08:03:45.118Z,9.05
2023-03-06T08:06:17.834Z,9.07
2023-03-06T08:08:46.285Z,8.81
2023-03-06T08:11:15.056Z,8.92
2023-03-06T08:13:42.146Z,9.19
2023-03-06T08:16:10.127Z,9.35
2023-03-06T08:18:39.818Z,9.23
2023-03-06T08:21:11.987Z,9.36
2023-03-06T08:23:40.331Z,9.35
2023-03-06T08:26:11.843Z,9.36
2023-03-06T08:28:40.732Z,9.41
2023-03-06T08:31:16.141Z,9.56
2023-03-06T08:33:43.168Z,9.53
2023-03-06T08:36:10.504Z,9.33
2023-03-06T08:38:37.519Z,9.39
2023-03-06T08:41:04.831Z,9.46
2023-03-06T08:43:32.373Z,9.60
2023-03-06T08:45:59.835Z,9.82
2023-03-06T08:48:26.806Z,9.74
2023-03-06T08:50:53.982Z,9.48
2023-03-06T08:53:25.848Z,9.75
2023-03-06T08:55:57.585Z,9.76
2023-03-06T08:58:24.748Z,10.08
2023-03-06T09:00:52.246Z,9.63
2023-03-06T09:03:22.384Z,9.87
2023-03-06T09:05:51.680Z,9.91
2023-03-06T09:08:18.883Z,10.06
2023-03-06T09:10:48.009Z,10.31
2023-03-06T09:13:15.382Z,10.09
2023-03-06T09:15:46.186Z,10.00
2023-03-06T09:18:13.441Z,9.88
2023-03-06T09:20:40.451Z,9.65
2023-03-06T09:23:10.922Z,9.81
2023-03-06T09:25:38.238Z,9.58
2023-03-06T09:28:11.688Z,9.45
2023-03-06T09:30:41.196Z,9.54
2023-03-06T09:33:08.681Z,9.93
2023-03-06T09:35:36.042Z,10.10
2023-03-06T09:38:03.664Z,10.34
2023-03-06T09:41:01.929Z,10.27
2023-03-06T09:43:35.603Z,10.72
2023-03-06T09:46:30.458Z,10.74
2023-03-06T09:49:10.514Z,10.57
2023-03-06T09:52:16.186Z,10.61
2023-03-06T09:54:46.273Z,10.56
2023-03-06T09:57:19.669Z,10.80
2023-03-06T09:59:51.001Z,10.86
2023-03-06T10:02:54.222Z,10.65
2023-03-06T10:05:35.903Z,10.82
2023-03-06T10:08:30.429Z,11.12
2023-03-06T10:11:03.745Z,11.18
2023-03-06T10:13:50.599Z,11.27
2023-03-06T10:16:26.419Z,11.24
2023-03-06T10:18:55.571Z,11.48
2023-03-06T10:21:48.015Z,11.33
2023-03-06T10:24:35.079Z,10.95
2023-03-06T10:27:31.735Z,10.79
2023-03-06T10:30:04.347Z,10.84
2023-03-06T10:32:55.322Z,11.28
2023-03-06T10:35:30.878Z,11.44
2023-03-06T10:38:25.521Z,11.57
2023-03-06T10:41:11.310Z,11.61
2023-03-06T10:44:01.746Z,11.86
2023-03-06T10:46:38.483Z,12.08
2023-03-06T10:49:22.693Z,11.92
2023-03-06T10:52:21.555Z,11.73
2023-03-06T10:54:48.855Z,11.70
2023-03-06T10:57:24.963Z,11.90
2023-03-06T10:59:56.735Z,11.95
2023-03-06T11:02:29.620Z,12.02
2023-03-06T11:05:00.387Z,11.97
2023-03-06T11:07:33.372Z,12.08
2023-03-06T11:10:02.438Z,12.15
2023-03-06T11:12:40.866Z,11.73
2023-03-06T11:15:18.860Z,11.64
2023-03-06T11:18:01.301Z,11.82
2023-03-06T11:20:53.155Z,11.81
2023-03-06T11:23:37.605Z,11.48
2023-03-06T11:26:17.372Z,11.98
2023-03-06T11:28:48.651Z,12.11
2023-03-06T11:31:21.279Z,12.20
2023-03-06T11:33:54.337Z,12.40
2023-03-06T11:36:36.501Z,12.57
2023-03-06T11:39:11.414Z,12.83
2023-03-06T11:42:00.191Z,12.83
2023-03-06T11:44:50.514Z,12.93
2023-03-06T11:47:33.829Z,12.99
2023-03-06T11:50:10.819Z,13.00
2023-03-06T11:52:56.236Z,13.23
2023-03-06T11:55:32.138Z,13.21
2023-03-06T11:58:20.372Z,13.43
2023-03-06T12:00:47.309Z,13.39
2023-03-06T12:04:02.805Z,12.94
2023-03-06T12:07:26.408Z,12.65
2023-03-06T12:09:55.015Z,12.71
2023-03-06T12:12:29.129Z,12.66
2023-03-06T12:15:17.222Z,12.96
2023-03-06T12:17:50.750Z,12.94
2023-03-06T12:20:42.821Z,13.18
2023-03-06T12:23:24.996Z,13.38
2023-03-06T12:26:34.274Z,13.47
2023-03-06T12:29:14.019Z,13.40
2023-03-06T12:32:29.033Z,13.50
2023-03-06T12:35:33.972Z,13.41
2023-03-06T12:38:25.640Z,13.56
2023-03-06T12:41:31.160Z,13.41
2023-03-06T12:44:13.050Z,13.54
2023-03-06T12:46:45.681Z,13.51
2023-03-06T12:49:31.923Z,13.52
2023-03-06T12:52:00.801Z,13.40
2023-03-06T12:54:31.438Z,13.38
2023-03-06T12:57:06.298Z,13.44
2023-03-06T12:59:44.753Z,13.20
2023-03-06T13:02:30.433Z,13.16
2023-03-06T13:05:34.887Z,13.27
2023-03-06T13:08:16.681Z,13.46
2023-03-06T13:11:01.140Z,13.62
2023-03-06T13:13:40.622Z,13.30
2023-03-06T13:16:21.432Z,13.43
2023-03-06T13:19:18.420Z,13.04
2023-03-06T13:22:01.069Z,13.21
2023-03-06T13:24:33.909Z,13.41
2023-03-06T13:27:02.218Z,13.10
2023-03-06T13:29:38.450Z,13.06
2023-03-06T13:32:16.561Z,13.14
2023-03-06T13:34:49.327Z,13.56
2023-03-06T13:37:25.335Z,13.52
2023-03-06T13:39:55.197Z,13.56
2023-03-06T13:42:55.736Z,13.53
2023-03-06T13:45:43.877Z,13.71
2023-03-06T13:48:44.599Z,13.64
2023-03-06T13:51:26.543Z,13.08
2023-03-06T13:54:11.848Z,13.33
2023-03-06T13:57:03.358Z,13.30
2023-03-06T13:59:30.402Z,13.45
2023-03-06T14:02:08.796Z,13.41
2023-03-06T14:04:51.053Z,13.56
2023-03-06T14:07:21.947Z,13.45
2023-03-06T14:10:03.443Z,13.11
2023-03-06T14:12:36.122Z,12.91
2023-03-06T14:15:23.424Z,13.17
2023-03-06T14:18:24.224Z,13.26
2023-03-06T14:21:02.196Z,13.35
2023-03-06T14:23:32.419Z,13.30
2023-03-06T14:26:15.318Z,13.27
2023-03-06T14:29:02.459Z,13.27
2023-03-06T14:31:33.577Z,13.25
2023-03-06T14:34:05.176Z,13.28
2023-03-06T14:36:42.153Z,13.28
2023-03-06T14:39:29.887Z,13.24
2023-03-06T14:42:19.091Z,13.06
2023-03-06T14:44:47.945Z,12.96
2023-03-06T14:47:36.449Z,12.85
2023-03-06T14:50:24.518Z,12.97
2023-03-06T14:53:04.979Z,13.03
2023-03-06T14:55:36.306Z,12.84
2023-03-06T14:58:11.792Z,12.84
2023-03-06T15:00:44.800Z,12.77
2023-03-06T15:03:19.479Z,12.76
2023-03-06T15:05:47.652Z,12.86
2023-03-06T15:08:22.521Z,12.84
2023-03-06T15:10:58.817Z,13.00
2023-03-06T15:13:28.462Z,12.90
2023-03-06T15:15:59.571Z,12.92
2023-03-06T15:18:39.801Z,12.77
2023-03-06T15:21:08.237Z,12.85
2023-03-06T15:23:46.009Z,13.02
2023-03-06T15:26:37.049Z,12.96
2023-03-06T15:29:10.848Z,12.93
2023-03-06T15:31:42.765Z,12.89
2023-03-06T15:34:10.273Z,12.79
2023-03-06T15:36:38.908Z,12.69
2023-03-06T15:39:28.764Z,12.78
2023-03-06T15:42:14.628Z,12.74
2023-03-06T15:44:45.357Z,12.68
2023-03-06T15:47:13.023Z,12.48
2023-03-06T15:49:43.783Z,12.49
2023-03-06T15:52:15.986Z,12.36
2023-03-06T15:54:45.960Z,12.39
2023-03-06T15:57:29.415Z,12.24
2023-03-06T15:59:57.864Z,12.31
2023-03-06T16:02:24.869Z,12.26
2023-03-06T16:04:52.604Z,12.21
2023-03-06T16:07:21.082Z,12.12
2023-03-06T16:09:48.184Z,12.21
2023-03-06T16:12:22.975Z,12.22
2023-03-06T16:14:50.042Z,12.23
2023-03-06T16:17:17.810Z,12.09
2023-03-06T16:19:44.861Z,12.19
2023-03-06T16:22:11.984Z,12.17
2023-03-06T16:24:39.002Z,12.13
2023-03-06T16:27:06.991Z,11.97
2023-03-06T16:29:34.481Z,11.98
2023-03-06T16:32:02.537Z,11.94
2023-03-06T16:34:29.628Z,11.78
2023-03-06T16:36:56.655Z,11.86
2023-03-06T16:39:24.544Z,11.56
2023-03-06T16:41:52.064Z,11.66
2023-03-06T16:44:22.012Z,11.70
2023-03-06T16:46:52.149Z,11.80
2023-03-06T16:49:24.722Z,11.80
2023-03-06T16:51:58.043Z,11.76
2023-03-06T16:54:26.558Z,11.78
2023-03-06T16:56:53.850Z,11.89
2023-03-06T16:59:21.120Z,11.84
2023-03-06T17:01:48.170Z,11.85
2023-03-06T17:04:15.249Z,11.51
2023-03-06T17:06:43.215Z,11.21
2023-03-06T17:09:14.835Z,11.11
2023-03-06T17:11:45.091Z,10.96
2023-03-06T17:14:13.373Z,10.86
2023-03-06T17:16:40.730Z,10.84
2023-03-06T17:19:08.915Z,10.78
2023-03-06T17:21:41.139Z,10.92
2023-03-06T17:24:09.982Z,10.69
2023-03-06T17:26:37.307Z,10.57
2023-03-06T17:29:06.950Z,10.67
2023-03-06T17:31:34.262Z,10.50
2023-03-06T17:34:01.203Z,10.51
2023-03-06T17:36:29.546Z,10.42
2023-03-06T17:38:59.895Z,10.52
2023-03-06T17:41:27.062Z,10.41
2023-03-06T17:43:58.473Z,10.46
2023-03-06T17:46:26.280Z,10.55
2023-03-06T17:48:54.480Z,10.47
2023-03-06T17:51:21.373Z,10.57
2023-03-06T17:53:49.317Z,10.62
2023-03-06T17:56:16.454Z,10.51
2023-03-06T17:58:43.392Z,10.45
2023-03-06T18:01:11.312Z,10.43
2023-03-06T18:03:38.704Z,10.40
2023-03-06T18:06:09.901Z,10.41
2023-03-06T18:08:38.309Z,10.60
2023-03-06T18:11:08.132Z,10.52
2023-03-06T18:13:37.191Z,10.36
2023-03-06T18:16:05.965Z,10.34
2023-03-06T18:18:33.839Z,10.19
2023-03-06T18:21:05.801Z,10.31
2023-03-06T18:23:32.838Z,10.14
2023-03-06T18:26:11.974Z,10.05
2023-03-06T18:28:42.551Z,9.96
2023-03-06T18:31:26.778Z,9.91
2023-03-06T18:33:57.744Z,9.90
2023-03-06T18:36:27.343Z,9.85
2023-03-06T18:38:54.756Z,9.98
2023-03-06T18:41:22.722Z,9.96
2023-03-06T18:43:55.385Z,9.88
2023-03-06T18:46:22.723Z,9.75
2023-03-06T18:48:51.023Z,9.75
2023-03-06T18:51:19.412Z,9.68
2023-03-06T18:53:46.869Z,9.73
2023-03-06T18:56:19.999Z,9.74
2023-03-06T18:58:47.598Z,9.56
2023-03-06T19:01:14.711Z,9.47
2023-03-06T19:03:45.224Z,9.56
2023-03-06T19:06:14.466Z,9.48
2023-03-06T19:08:42.181Z,9.42
2023-03-06T19:11:11.881Z,9.52
2023-03-06T19:13:38.893Z,9.50
2023-03-06T19:16:08.186Z,9.64
2023-03-06T19:18:35.596Z,9.60
2023-03-06T19:21:17.742Z,9.51
2023-03-06T19:23:44.950Z,9.54
2023-03-06T19:26:12.265Z,9.61
2023-03-06T19:28:43.393Z,9.74
2023-03-06T19:31:15.976Z,9.74
2023-03-06T19:33:43.311Z,9.68
2023-03-06T19:36:12.625Z,9.59
2023-03-06T19:38:39.974Z,9.61
2023-03-06T19:41:11.958Z,9.45
2023-03-06T19:43:40.968Z,9.21
2023-03-06T19:46:15.395Z,9.20
2023-03-06T19:48:42.806Z,8.96
2023-03-06T19:51:10.307Z,9.11
2023-03-06T19:53:39.737Z,9.01
2023-03-06T19:56:13.490Z,9.18
2023-03-06T19:58:40.934Z,9.15
2023-03-06T20:01:10.769Z,9.09
2023-03-06T20:03:38.749Z,9.02
2023-03-06T20:06:09.148Z,8.96
2023-03-06T20:08:39.571Z,8.90
2023-03-06T20:11:06.780Z,8.71
2023-03-06T20:13:33.664Z,8.76
2023-03-06T20:16:04.183Z,8.90
2023-03-06T20:18:31.145Z,9.00
2023-03-06T20:21:02.887Z,9.01
2023-03-06T20:23:30.480Z,9.07
2023-03-06T20:26:02.010Z,8.97
2023-03-06T20:28:29.151Z,8.71
2023-03-06T20:30:56.123Z,8.72
2023-03-06T20:33:23.253Z,8.71
2023-03-06T20:35:50.379Z,8.54
2023-03-06T20:38:17.468Z,8.29
2023-03-06T20:40:44.639Z,8.44
2023-03-06T20:43:11.626Z,8.36
2023-03-06T20:45:39.364Z,8.33
2023-03-06T20:48:06.651Z,8.43
2023-03-06T20:50:33.628Z,8.42
2023-03-06T20:53:00.781Z,8.48
2023-03-06T20:55:27.786Z,8.34
2023-03-06T20:57:54.719Z,8.22
2023-03-06T21:00:21.738Z,8.44
2023-03-06T21:02:49.090Z,8.40
2023-03-06T21:05:16.271Z,8.36
2023-03-06T21:07:44.499Z,8.46
2023-03-06T21:10:11.861Z,8.27
2023-03-06T21:12:42.677Z,8.03
2023-03-06T21:15:09.986Z,8.02
2023-03-06T21:17:37.901Z,7.97
2023-03-06T21:20:06.120Z,8.08
2023-03-06T21:22:33.277Z,8.10
2023-03-06T21:25:02.879Z,7.91
2023-03-06T21:27:30.754Z,8.02
2023-03-06T21:29:57.733Z,7.82
2023-03-06T21:32:24.804Z,7.89
2023-03-06T21:34:51.941Z,7.54
2023-03-06T21:37:19.274Z,7.87
2023-03-06T21:39:46.460Z,7.86
2023-03-06T21:42:14.041Z,7.79
2023-03-06T21:44:41.040Z,7.80
2023-03-06T21:47:08.572Z,7.87
2023-03-06T21:49:35.569Z,7.93
2023-03-06T21:52:03.329Z,7.88
2023-03-06T21:54:30.480Z,7.53
2023-03-06T21:56:57.940Z,7.27
2023-03-06T21:59:25.058Z,7.14
2023-03-06T22:01:52.135Z,6.63
2023-03-06T22:04:19.199Z,6.67
2023-03-06T22:06:46.152Z,6.53
2023-03-06T22:09:16.241Z,6.47
2023-03-06T22:11:43.736Z,6.17
2023-03-06T22:14:10.781Z,6.25
2023-03-06T22:16:37.936Z,6.20
2023-03-06T22:19:05.288Z,6.14
2023-03-06T22:21:32.371Z,6.11
2023-03-06T22:23:59.886Z,6.05
2023-03-06T22:26:28.928Z,6.23
2023-03-06T22:28:56.291Z,6.34
2023-03-06T22:31:26.037Z,6.52
2023-03-06T22:33:55.094Z,6.80
2023-03-06T22:36:23.367Z,6.82
2023-03-06T22:38:54.764Z,6.86
2023-03-06T22:41:22.119Z,6.74
2023-03-06T22:43:49.205Z,6.74
2023-03-06T22:46:17.827Z,6.88
2023-03-06T22:48:45.736Z,6.86
2023-03-06T22:51:15.570Z,6.77
2023-03-06T22:53:43.157Z,6.70
2023-03-06T22:56:14.879Z,6.77
2023-03-06T22:58:42.266Z,6.88
2023-03-06T23:01:12.069Z,6.97
2023-03-06T23:03:42.317Z,7.09
2023-03-06T23:06:12.013Z,7.26
2023-03-06T23:08:39.212Z,7.23
2023-03-06T23:11:16.051Z,7.21
2023-03-06T23:14:02.302Z,7.01
2023-03-06T23:16:47.770Z,6.58
2023-03-06T23:19:33.260Z,6.46
2023-03-06T23:22:19.297Z,6.48
2023-03-06T23:25:06.106Z,6.45
2023-03-06T23:27:35.166Z,6.55
2023-03-06T23:30:02.580Z,6.39
2023-03-06T23:32:33.094Z,6.49
2023-03-06T23:35:00.733Z,6.45
2023-03-06T23:37:27.706Z,6.56
2023-03-06T23:39:54.783Z,6.71
2023-03-06T23:42:22.676Z,6.76
2023-03-06T23:44:49.792Z,6.96
2023-03-06T23:47:17.411Z,6.82
2023-03-06T23:49:44.401Z,6.89
2023-03-06T23:52:11.365Z,6.95
2023-03-06T23:54:38.332Z,6.95
2023-03-06T23:57:05.423Z,6.84
2023-03-06T23:59:32.722Z,6.84
